Аэропорт: Михайловка. Барнаул

ICAO: UNBB

METAR:
2019/05/26 14:00
UNBB 261400Z 31006MPS CAVOK 10/M06 Q1024 R24/CLRD66 NOSIG RMK QFE745
METAR:
2019/05/26 12:21
TAF UNBB 261100Z 2612/2712 29008G13MPS 9999 SCT030CB 
      TEMPO 2612/2614 3100 -SHRA BKN011CB 
      BECMG 2614/2615 26003G08MPS 
      BECMG 2702/2703 31003G08MPS